sensor_id;sensor_type;location;lat;lon;timestamp;temperature;humidity
516;DHT22;244;48.508;9.052;2023-01-24T00:01:01;4.70;19.50
516;DHT22;244;48.508;9.052;2023-01-24T00:03:28;4.70;19.50
516;DHT22;244;48.508;9.052;2023-01-24T00:05:55;4.70;20.10
516;DHT22;244;48.508;9.052;2023-01-24T00:08:22;4.70;19.50
516;DHT22;244;48.508;9.052;2023-01-24T00:10:49;4.80;19.60
516;DHT22;244;48.508;9.052;2023-01-24T00:13:24;4.80;19.50
516;DHT22;244;48.508;9.052;2023-01-24T00:16:01;4.80;19.50
516;DHT22;244;48.508;9.052;2023-01-24T00:18:28;4.80;19.40
516;DHT22;244;48.508;9.052;2023-01-24T00:21:00;4.80;19.40
516;DHT22;244;48.508;9.052;2023-01-24T00:23:27;4.80;19.30
516;DHT22;244;48.508;9.052;2023-01-24T00:25:54;4.80;19.40
516;DHT22;244;48.508;9.052;2023-01-24T00:28:21;4.80;19.30
516;DHT22;244;48.508;9.052;2023-01-24T00:30:48;4.80;19.90
516;DHT22;244;48.508;9.052;2023-01-24T00:33:16;4.80;19.40
516;DHT22;244;48.508;9.052;2023-01-24T00:35:43;4.70;19.90
516;DHT22;244;48.508;9.052;2023-01-24T00:38:10;4.70;19.30
516;DHT22;244;48.508;9.052;2023-01-24T00:40:36;4.70;19.30
516;DHT22;244;48.508;9.052;2023-01-24T00:43:03;4.70;19.30
516;DHT22;244;48.508;9.052;2023-01-24T00:45:30;4.70;19.40
516;DHT22;244;48.508;9.052;2023-01-24T00:47:57;4.70;19.40
516;DHT22;244;48.508;9.052;2023-01-24T00:50:26;4.70;19.90
516;DHT22;244;48.508;9.052;2023-01-24T00:52:53;4.70;19.40
516;DHT22;244;48.508;9.052;2023-01-24T00:55:19;4.70;19.50
516;DHT22;244;48.508;9.052;2023-01-24T00:57:46;4.70;19.50
516;DHT22;244;48.508;9.052;2023-01-24T01:00:14;4.70;19.40
516;DHT22;244;48.508;9.052;2023-01-24T01:02:41;4.70;19.40
516;DHT22;244;48.508;9.052;2023-01-24T01:05:08;4.70;19.50
516;DHT22;244;48.508;9.052;2023-01-24T01:07:36;4.70;20.00
516;DHT22;244;48.508;9.052;2023-01-24T01:10:04;4.70;19.40
516;DHT22;244;48.508;9.052;2023-01-24T01:12:31;4.70;19.40
516;DHT22;244;48.508;9.052;2023-01-24T01:14:58;4.60;19.40
516;DHT22;244;48.508;9.052;2023-01-24T01:17:26;4.60;20.00
516;DHT22;244;48.508;9.052;2023-01-24T01:19:53;4.60;20.00
516;DHT22;244;48.508;9.052;2023-01-24T01:22:20;4.60;19.50
516;DHT22;244;48.508;9.052;2023-01-24T01:24:48;4.60;19.50
516;DHT22;244;48.508;9.052;2023-01-24T01:27:15;4.60;20.10
516;DHT22;244;48.508;9.052;2023-01-24T01:29:42;4.60;19.50
516;DHT22;244;48.508;9.052;2023-01-24T01:32:09;4.60;19.50
516;DHT22;244;48.508;9.052;2023-01-24T01:34:36;4.60;19.50
516;DHT22;244;48.508;9.052;2023-01-24T01:37:03;4.60;19.50
516;DHT22;244;48.508;9.052;2023-01-24T01:39:30;4.60;19.50
516;DHT22;244;48.508;9.052;2023-01-24T01:41:58;4.60;19.50
516;DHT22;244;48.508;9.052;2023-01-24T01:44:27;4.60;20.20
516;DHT22;244;48.508;9.052;2023-01-24T01:47:16;4.60;19.50
516;DHT22;244;48.508;9.052;2023-01-24T01:49:46;4.60;19.50
516;DHT22;244;48.508;9.052;2023-01-24T01:52:16;4.60;19.50
516;DHT22;244;48.508;9.052;2023-01-24T01:54:44;4.60;19.60
516;DHT22;244;48.508;9.052;2023-01-24T01:57:17;4.60;19.70
516;DHT22;244;48.508;9.052;2023-01-24T01:59:47;4.60;19.60
516;DHT22;244;48.508;9.052;2023-01-24T02:02:18;4.60;19.60
516;DHT22;244;48.508;9.052;2023-01-24T02:04:48;4.60;19.70
516;DHT22;244;48.508;9.052;2023-01-24T02:07:19;4.60;19.70
516;DHT22;244;48.508;9.052;2023-01-24T02:09:50;4.60;19.70
516;DHT22;244;48.508;9.052;2023-01-24T02:12:21;4.60;19.80
516;DHT22;244;48.508;9.052;2023-01-24T02:14:53;4.60;19.80
516;DHT22;244;48.508;9.052;2023-01-24T02:17:39;4.60;19.80
516;DHT22;244;48.508;9.052;2023-01-24T02:20:11;4.60;19.90
516;DHT22;244;48.508;9.052;2023-01-24T02:22:48;4.60;19.90
516;DHT22;244;48.508;9.052;2023-01-24T02:25:21;4.60;19.90
516;DHT22;244;48.508;9.052;2023-01-24T02:27:50;4.60;19.90
516;DHT22;244;48.508;9.052;2023-01-24T02:30:17;4.60;20.60
516;DHT22;244;48.508;9.052;2023-01-24T02:32:44;4.60;20.00
516;DHT22;244;48.508;9.052;2023-01-24T02:35:26;4.60;20.10
516;DHT22;244;48.508;9.052;2023-01-24T02:37:56;4.60;20.10
516;DHT22;244;48.508;9.052;2023-01-24T02:40:25;4.60;20.20
516;DHT22;244;48.508;9.052;2023-01-24T02:42:56;4.50;20.20
516;DHT22;244;48.508;9.052;2023-01-24T02:45:26;4.50;20.30
516;DHT22;244;48.508;9.052;2023-01-24T02:47:55;4.50;20.30
516;DHT22;244;48.508;9.052;2023-01-24T02:50:24;4.50;20.40
516;DHT22;244;48.508;9.052;2023-01-24T02:52:52;4.50;20.50
516;DHT22;244;48.508;9.052;2023-01-24T02:55:36;4.50;20.60
516;DHT22;244;48.508;9.052;2023-01-24T02:58:26;4.50;20.60
516;DHT22;244;48.508;9.052;2023-01-24T03:00:52;4.50;20.70
516;DHT22;244;48.508;9.052;2023-01-24T03:03:19;4.50;20.80
516;DHT22;244;48.508;9.052;2023-01-24T03:05:46;4.50;21.40
516;DHT22;244;48.508;9.052;2023-01-24T03:08:22;4.50;20.80
516;DHT22;244;48.508;9.052;2023-01-24T03:10:49;4.50;20.80
516;DHT22;244;48.508;9.052;2023-01-24T03:13:15;4.50;20.80
516;DHT22;244;48.508;9.052;2023-01-24T03:16:01;4.50;20.80
516;DHT22;244;48.508;9.052;2023-01-24T03:18:46;4.50;20.80
516;DHT22;244;48.508;9.052;2023-01-24T03:21:30;4.50;20.80
516;DHT22;244;48.508;9.052;2023-01-24T03:24:14;4.50;20.80
516;DHT22;244;48.508;9.052;2023-01-24T03:26:58;4.50;20.80
516;DHT22;244;48.508;9.052;2023-01-24T03:29:42;4.50;20.80
516;DHT22;244;48.508;9.052;2023-01-24T03:32:28;4.50;20.80
516;DHT22;244;48.508;9.052;2023-01-24T03:35:13;4.50;20.80
516;DHT22;244;48.508;9.052;2023-01-24T03:37:40;4.50;20.80
516;DHT22;244;48.508;9.052;2023-01-24T03:40:24;4.50;21.40
516;DHT22;244;48.508;9.052;2023-01-24T03:42:51;4.50;20.80
516;DHT22;244;48.508;9.052;2023-01-24T03:45:21;4.50;20.80
516;DHT22;244;48.508;9.052;2023-01-24T03:47:52;4.50;20.80
516;DHT22;244;48.508;9.052;2023-01-24T03:50:23;4.60;21.40
516;DHT22;244;48.508;9.052;2023-01-24T03:53:09;4.60;20.80
516;DHT22;244;48.508;9.052;2023-01-24T03:55:36;4.60;20.80
516;DHT22;244;48.508;9.052;2023-01-24T03:58:03;4.60;20.90
516;DHT22;244;48.508;9.052;2023-01-24T04:00:31;4.60;20.80
516;DHT22;244;48.508;9.052;2023-01-24T04:03:00;4.60;20.80
516;DHT22;244;48.508;9.052;2023-01-24T04:05:27;4.60;20.90
516;DHT22;244;48.508;9.052;2023-01-24T04:07:54;4.60;20.80
516;DHT22;244;48.508;9.052;2023-01-24T04:10:21;4.60;20.80
516;DHT22;244;48.508;9.052;2023-01-24T04:12:48;4.60;20.90
516;DHT22;244;48.508;9.052;2023-01-24T04:15:18;4.60;20.80
516;DHT22;244;48.508;9.052;2023-01-24T04:17:45;4.60;20.80
516;DHT22;244;48.508;9.052;2023-01-24T04:20:14;4.60;20.80
516;DHT22;244;48.508;9.052;2023-01-24T04:22:41;4.60;20.80
516;DHT22;244;48.508;9.052;2023-01-24T04:25:09;4.60;20.80
516;DHT22;244;48.508;9.052;2023-01-24T04:27:36;4.60;20.80
516;DHT22;244;48.508;9.052;2023-01-24T04:30:04;4.60;20.80
516;DHT22;244;48.508;9.052;2023-01-24T04:32:31;4.60;20.80
516;DHT22;244;48.508;9.052;2023-01-24T04:34:58;4.60;20.80
516;DHT22;244;48.508;9.052;2023-01-24T04:37:27;4.70;20.90
516;DHT22;244;48.508;9.052;2023-01-24T04:39:54;4.70;20.90
516;DHT22;244;48.508;9.052;2023-01-24T04:42:21;4.70;21.00
516;DHT22;244;48.508;9.052;2023-01-24T04:44:48;4.70;21.50
516;DHT22;244;48.508;9.052;2023-01-24T04:47:14;4.70;20.90
516;DHT22;244;48.508;9.052;2023-01-24T04:49:41;4.70;20.90
516;DHT22;244;48.508;9.052;2023-01-24T04:52:09;4.70;20.90
516;DHT22;244;48.508;9.052;2023-01-24T04:54:38;4.70;20.90
516;DHT22;244;48.508;9.052;2023-01-24T04:57:05;4.70;20.90
516;DHT22;244;48.508;9.052;2023-01-24T04:59:32;4.70;20.90
516;DHT22;244;48.508;9.052;2023-01-24T05:01:59;4.70;21.00
516;DHT22;244;48.508;9.052;2023-01-24T05:04:26;4.80;21.00
516;DHT22;244;48.508;9.052;2023-01-24T05:06:53;4.80;21.60
516;DHT22;244;48.508;9.052;2023-01-24T05:09:20;4.70;20.90
516;DHT22;244;48.508;9.052;2023-01-24T05:11:48;4.70;21.50
516;DHT22;244;48.508;9.052;2023-01-24T05:14:15;4.70;20.90
516;DHT22;244;48.508;9.052;2023-01-24T05:16:42;4.70;20.90
516;DHT22;244;48.508;9.052;2023-01-24T05:19:09;4.70;21.00
516;DHT22;244;48.508;9.052;2023-01-24T05:21:36;4.70;20.90
516;DHT22;244;48.508;9.052;2023-01-24T05:24:03;4.70;20.90
516;DHT22;244;48.508;9.052;2023-01-24T05:26:30;4.70;20.90
516;DHT22;244;48.508;9.052;2023-01-24T05:28:58;4.70;20.90
516;DHT22;244;48.508;9.052;2023-01-24T05:31:25;4.70;21.00
516;DHT22;244;48.508;9.052;2023-01-24T05:33:53;4.70;20.90
516;DHT22;244;48.508;9.052;2023-01-24T05:36:21;4.70;20.90
516;DHT22;244;48.508;9.052;2023-01-24T05:38:49;4.70;20.90
516;DHT22;244;48.508;9.052;2023-01-24T05:41:19;4.70;20.90
516;DHT22;244;48.508;9.052;2023-01-24T05:43:46;4.70;20.90
516;DHT22;244;48.508;9.052;2023-01-24T05:46:17;4.70;20.90
516;DHT22;244;48.508;9.052;2023-01-24T05:48:45;4.70;20.90
516;DHT22;244;48.508;9.052;2023-01-24T05:51:14;4.70;20.90
516;DHT22;244;48.508;9.052;2023-01-24T05:53:42;4.70;20.90
516;DHT22;244;48.508;9.052;2023-01-24T05:56:12;4.70;20.90
516;DHT22;244;48.508;9.052;2023-01-24T05:58:40;4.70;20.90
516;DHT22;244;48.508;9.052;2023-01-24T06:01:08;4.70;20.90
516;DHT22;244;48.508;9.052;2023-01-24T06:03:39;4.70;20.90
516;DHT22;244;48.508;9.052;2023-01-24T06:06:07;4.70;20.90
516;DHT22;244;48.508;9.052;2023-01-24T06:08:35;4.70;20.90
516;DHT22;244;48.508;9.052;2023-01-24T06:11:04;4.70;20.90
516;DHT22;244;48.508;9.052;2023-01-24T06:13:31;4.70;21.00
516;DHT22;244;48.508;9.052;2023-01-24T06:16:03;4.70;20.90
516;DHT22;244;48.508;9.052;2023-01-24T06:18:30;4.70;20.90
516;DHT22;244;48.508;9.052;2023-01-24T06:21:05;4.70;20.90
516;DHT22;244;48.508;9.052;2023-01-24T06:23:32;4.70;21.00
516;DHT22;244;48.508;9.052;2023-01-24T06:26:00;4.70;20.90
516;DHT22;244;48.508;9.052;2023-01-24T06:28:27;4.70;20.90
516;DHT22;244;48.508;9.052;2023-01-24T06:31:02;4.70;20.90
516;DHT22;244;48.508;9.052;2023-01-24T06:33:36;4.70;20.90
516;DHT22;244;48.508;9.052;2023-01-24T06:36:21;4.70;21.00
516;DHT22;244;48.508;9.052;2023-01-24T06:38:52;4.70;21.00
516;DHT22;244;48.508;9.052;2023-01-24T06:41:20;4.70;21.00
516;DHT22;244;48.508;9.052;2023-01-24T06:43:47;4.70;21.00
516;DHT22;244;48.508;9.052;2023-01-24T06:46:14;4.70;21.00
516;DHT22;244;48.508;9.052;2023-01-24T06:48:43;4.70;21.00
516;DHT22;244;48.508;9.052;2023-01-24T06:51:12;4.70;20.90
516;DHT22;244;48.508;9.052;2023-01-24T06:53:40;4.70;20.90
516;DHT22;244;48.508;9.052;2023-01-24T06:56:08;4.80;21.00
516;DHT22;244;48.508;9.052;2023-01-24T06:58:35;4.80;21.00
516;DHT22;244;48.508;9.052;2023-01-24T07:01:02;4.80;21.00
516;DHT22;244;48.508;9.052;2023-01-24T07:03:29;4.80;21.00
516;DHT22;244;48.508;9.052;2023-01-24T07:05:56;4.80;21.60
516;DHT22;244;48.508;9.052;2023-01-24T07:08:24;4.80;21.00
516;DHT22;244;48.508;9.052;2023-01-24T07:10:51;4.80;21.00
516;DHT22;244;48.508;9.052;2023-01-24T07:13:18;4.90;21.70
516;DHT22;244;48.508;9.052;2023-01-24T07:15:45;4.90;21.00
516;DHT22;244;48.508;9.052;2023-01-24T07:18:13;4.90;21.00
516;DHT22;244;48.508;9.052;2023-01-24T07:20:42;4.90;21.00
516;DHT22;244;48.508;9.052;2023-01-24T07:23:19;4.90;21.10
516;DHT22;244;48.508;9.052;2023-01-24T07:25:48;4.90;21.00
516;DHT22;244;48.508;9.052;2023-01-24T07:28:15;4.90;21.00
516;DHT22;244;48.508;9.052;2023-01-24T07:30:42;4.90;21.00
516;DHT22;244;48.508;9.052;2023-01-24T07:33:11;5.00;21.10
516;DHT22;244;48.508;9.052;2023-01-24T07:35:38;5.00;21.10
516;DHT22;244;48.508;9.052;2023-01-24T07:38:05;5.00;21.10
516;DHT22;244;48.508;9.052;2023-01-24T07:40:32;5.00;21.10
516;DHT22;244;48.508;9.052;2023-01-24T07:43:01;5.00;21.10
516;DHT22;244;48.508;9.052;2023-01-24T07:45:28;5.00;21.10
516;DHT22;244;48.508;9.052;2023-01-24T07:47:56;5.00;21.10
516;DHT22;244;48.508;9.052;2023-01-24T07:50:23;5.00;21.10
516;DHT22;244;48.508;9.052;2023-01-24T07:52:50;5.00;21.10
516;DHT22;244;48.508;9.052;2023-01-24T07:55:18;5.00;21.10
516;DHT22;244;48.508;9.052;2023-01-24T07:57:45;5.10;21.00
516;DHT22;244;48.508;9.052;2023-01-24T08:00:15;5.10;20.80
516;DHT22;244;48.508;9.052;2023-01-24T08:02:42;5.00;20.70
516;DHT22;244;48.508;9.052;2023-01-24T08:05:10;5.00;20.70
516;DHT22;244;48.508;9.052;2023-01-24T08:07:37;5.00;20.70
516;DHT22;244;48.508;9.052;2023-01-24T08:10:05;5.00;20.70
516;DHT22;244;48.508;9.052;2023-01-24T08:12:32;5.00;20.60
516;DHT22;244;48.508;9.052;2023-01-24T08:14:58;5.00;20.60
516;DHT22;244;48.508;9.052;2023-01-24T08:17:27;5.00;20.60
516;DHT22;244;48.508;9.052;2023-01-24T08:19:53;5.00;20.60
516;DHT22;244;48.508;9.052;2023-01-24T08:22:20;5.00;20.60
516;DHT22;244;48.508;9.052;2023-01-24T08:24:47;5.00;20.50
516;DHT22;244;48.508;9.052;2023-01-24T08:27:14;5.00;20.50
516;DHT22;244;48.508;9.052;2023-01-24T08:29:41;5.00;20.40
516;DHT22;244;48.508;9.052;2023-01-24T08:32:08;5.10;21.10
516;DHT22;244;48.508;9.052;2023-01-24T08:34:36;5.10;20.40
516;DHT22;244;48.508;9.052;2023-01-24T08:37:03;5.10;20.40
516;DHT22;244;48.508;9.052;2023-01-24T08:39:29;5.10;20.30
516;DHT22;244;48.508;9.052;2023-01-24T08:41:56;5.20;20.30
516;DHT22;244;48.508;9.052;2023-01-24T08:44:23;5.20;20.20
516;DHT22;244;48.508;9.052;2023-01-24T08:46:50;5.30;20.20
516;DHT22;244;48.508;9.052;2023-01-24T08:49:17;5.30;20.10
516;DHT22;244;48.508;9.052;2023-01-24T08:51:45;5.30;20.00
516;DHT22;244;48.508;9.052;2023-01-24T08:54:13;5.40;20.60
516;DHT22;244;48.508;9.052;2023-01-24T08:56:40;5.40;20.40
516;DHT22;244;48.508;9.052;2023-01-24T08:59:07;5.40;19.70
516;DHT22;244;48.508;9.052;2023-01-24T09:01:34;5.40;19.80
516;DHT22;244;48.508;9.052;2023-01-24T09:04:00;5.40;20.20
516;DHT22;244;48.508;9.052;2023-01-24T09:06:28;5.50;19.70
516;DHT22;244;48.508;9.052;2023-01-24T09:08:56;5.50;19.70
516;DHT22;244;48.508;9.052;2023-01-24T09:11:23;5.60;19.70
516;DHT22;244;48.508;9.052;2023-01-24T09:13:50;5.60;19.60
516;DHT22;244;48.508;9.052;2023-01-24T09:16:17;5.70;19.60
516;DHT22;244;48.508;9.052;2023-01-24T09:18:44;5.70;19.50
516;DHT22;244;48.508;9.052;2023-01-24T09:21:11;5.70;19.40
516;DHT22;244;48.508;9.052;2023-01-24T09:23:37;5.70;19.30
516;DHT22;244;48.508;9.052;2023-01-24T09:26:06;5.70;19.10
516;DHT22;244;48.508;9.052;2023-01-24T09:28:33;5.70;19.10
516;DHT22;244;48.508;9.052;2023-01-24T09:31:00;5.70;19.10
516;DHT22;244;48.508;9.052;2023-01-24T09:33:28;5.70;19.00
516;DHT22;244;48.508;9.052;2023-01-24T09:35:56;5.70;19.60
516;DHT22;244;48.508;9.052;2023-01-24T09:38:23;5.70;19.50
516;DHT22;244;48.508;9.052;2023-01-24T09:40:56;5.70;19.00
516;DHT22;244;48.508;9.052;2023-01-24T09:43:42;5.70;18.90
516;DHT22;244;48.508;9.052;2023-01-24T09:46:18;5.70;19.50
516;DHT22;244;48.508;9.052;2023-01-24T09:48:48;5.70;18.70
516;DHT22;244;48.508;9.052;2023-01-24T09:51:19;5.70;18.80
516;DHT22;244;48.508;9.052;2023-01-24T09:53:51;5.70;18.80
516;DHT22;244;48.508;9.052;2023-01-24T09:56:21;5.70;18.80
516;DHT22;244;48.508;9.052;2023-01-24T10:01:41;5.80;19.40
516;DHT22;244;48.508;9.052;2023-01-24T10:04:15;5.90;18.90
516;DHT22;244;48.508;9.052;2023-01-24T10:06:57;5.90;18.80
516;DHT22;244;48.508;9.052;2023-01-24T10:09:31;5.90;18.60
516;DHT22;244;48.508;9.052;2023-01-24T10:12:07;6.00;18.60
516;DHT22;244;48.508;9.052;2023-01-24T10:14:50;6.00;18.60
516;DHT22;244;48.508;9.052;2023-01-24T10:17:32;6.00;18.60
516;DHT22;244;48.508;9.052;2023-01-24T10:20:17;6.10;18.50
516;DHT22;244;48.508;9.052;2023-01-24T10:22:59;6.20;18.40
516;DHT22;244;48.508;9.052;2023-01-24T10:25:30;6.20;18.20
516;DHT22;244;48.508;9.052;2023-01-24T10:28:00;6.10;18.20
516;DHT22;244;48.508;9.052;2023-01-24T10:30:36;6.10;18.20
516;DHT22;244;48.508;9.052;2023-01-24T10:33:15;6.20;18.20
516;DHT22;244;48.508;9.052;2023-01-24T10:35:53;6.20;18.20
516;DHT22;244;48.508;9.052;2023-01-24T10:38:22;6.20;18.10
516;DHT22;244;48.508;9.052;2023-01-24T10:40:50;6.20;18.00
516;DHT22;244;48.508;9.052;2023-01-24T10:43:18;6.20;18.10
516;DHT22;244;48.508;9.052;2023-01-24T10:45:59;6.20;18.10
516;DHT22;244;48.508;9.052;2023-01-24T10:48:37;6.20;18.00
516;DHT22;244;48.508;9.052;2023-01-24T10:51:14;6.30;18.00
516;DHT22;244;48.508;9.052;2023-01-24T10:53:42;6.30;17.90
516;DHT22;244;48.508;9.052;2023-01-24T10:56:09;6.30;17.80
516;DHT22;244;48.508;9.052;2023-01-24T10:58:39;6.30;17.80
516;DHT22;244;48.508;9.052;2023-01-24T11:01:17;6.30;17.60
516;DHT22;244;48.508;9.052;2023-01-24T11:03:45;6.40;17.80
516;DHT22;244;48.508;9.052;2023-01-24T11:06:24;6.40;17.70
516;DHT22;244;48.508;9.052;2023-01-24T11:08:54;6.40;17.70
516;DHT22;244;48.508;9.052;2023-01-24T11:11:29;6.40;17.70
516;DHT22;244;48.508;9.052;2023-01-24T11:13:57;6.50;17.80
516;DHT22;244;48.508;9.052;2023-01-24T11:16:32;6.50;17.80
516;DHT22;244;48.508;9.052;2023-01-24T11:19:02;6.50;17.70
516;DHT22;244;48.508;9.052;2023-01-24T11:21:30;6.60;17.80
516;DHT22;244;48.508;9.052;2023-01-24T11:24:07;6.60;17.60
516;DHT22;244;48.508;9.052;2023-01-24T11:26:37;6.70;17.50
516;DHT22;244;48.508;9.052;2023-01-24T11:29:10;6.70;17.40
516;DHT22;244;48.508;9.052;2023-01-24T11:31:45;6.80;17.30
516;DHT22;244;48.508;9.052;2023-01-24T11:34:39;6.70;16.90
516;DHT22;244;48.508;9.052;2023-01-24T11:37:35;6.70;17.00
516;DHT22;244;48.508;9.052;2023-01-24T11:40:24;6.70;16.90
516;DHT22;244;48.508;9.052;2023-01-24T11:43:05;6.70;17.00
516;DHT22;244;48.508;9.052;2023-01-24T11:45:54;6.60;16.90
516;DHT22;244;48.508;9.052;2023-01-24T11:48:27;6.60;17.00
516;DHT22;244;48.508;9.052;2023-01-24T11:51:05;6.60;17.00
516;DHT22;244;48.508;9.052;2023-01-24T11:53:52;6.60;17.10
516;DHT22;244;48.508;9.052;2023-01-24T11:56:28;6.70;17.20
516;DHT22;244;48.508;9.052;2023-01-24T11:59:08;6.70;17.10
516;DHT22;244;48.508;9.052;2023-01-24T12:01:45;6.70;17.00
516;DHT22;244;48.508;9.052;2023-01-24T12:07:22;6.80;17.10
516;DHT22;244;48.508;9.052;2023-01-24T12:10:02;6.80;17.60
516;DHT22;244;48.508;9.052;2023-01-24T12:12:37;6.70;16.90
516;DHT22;244;48.508;9.052;2023-01-24T12:15:16;6.70;16.90
516;DHT22;244;48.508;9.052;2023-01-24T12:18:11;6.70;17.00
516;DHT22;244;48.508;9.052;2023-01-24T12:21:06;6.70;17.00
516;DHT22;244;48.508;9.052;2023-01-24T12:23:40;6.70;17.00
516;DHT22;244;48.508;9.052;2023-01-24T12:26:13;6.60;17.00
516;DHT22;244;48.508;9.052;2023-01-24T12:28:47;6.60;17.00
516;DHT22;244;48.508;9.052;2023-01-24T12:31:22;6.60;17.00
516;DHT22;244;48.508;9.052;2023-01-24T12:33:56;6.60;17.00
516;DHT22;244;48.508;9.052;2023-01-24T12:36:32;6.60;17.10
516;DHT22;244;48.508;9.052;2023-01-24T12:39:05;6.60;17.10
516;DHT22;244;48.508;9.052;2023-01-24T12:41:36;6.60;17.10
516;DHT22;244;48.508;9.052;2023-01-24T12:44:13;6.60;17.10
516;DHT22;244;48.508;9.052;2023-01-24T12:46:47;6.60;17.10
516;DHT22;244;48.508;9.052;2023-01-24T12:49:25;6.60;17.70
516;DHT22;244;48.508;9.052;2023-01-24T12:51:59;6.60;17.10
516;DHT22;244;48.508;9.052;2023-01-24T12:54:32;6.60;17.10
516;DHT22;244;48.508;9.052;2023-01-24T12:57:09;6.60;17.10
516;DHT22;244;48.508;9.052;2023-01-24T12:59:38;6.60;17.70
516;DHT22;244;48.508;9.052;2023-01-24T13:02:36;6.60;17.00
516;DHT22;244;48.508;9.052;2023-01-24T13:05:38;6.60;17.10
516;DHT22;244;48.508;9.052;2023-01-24T13:08:21;6.60;17.10
516;DHT22;244;48.508;9.052;2023-01-24T13:10:57;6.60;17.70
516;DHT22;244;48.508;9.052;2023-01-24T13:13:28;6.70;17.20
516;DHT22;244;48.508;9.052;2023-01-24T13:16:14;6.70;17.10
516;DHT22;244;48.508;9.052;2023-01-24T13:18:52;6.70;17.20
516;DHT22;244;48.508;9.052;2023-01-24T13:21:27;6.70;17.70
516;DHT22;244;48.508;9.052;2023-01-24T13:24:30;6.70;17.00
516;DHT22;244;48.508;9.052;2023-01-24T13:27:18;6.70;17.00
516;DHT22;244;48.508;9.052;2023-01-24T13:30:05;6.70;17.00
516;DHT22;244;48.508;9.052;2023-01-24T13:32:40;6.80;17.10
516;DHT22;244;48.508;9.052;2023-01-24T13:35:15;6.80;17.70
516;DHT22;244;48.508;9.052;2023-01-24T13:37:49;6.80;17.00
516;DHT22;244;48.508;9.052;2023-01-24T13:40:22;6.80;17.10
516;DHT22;244;48.508;9.052;2023-01-24T13:42:49;6.70;17.00
516;DHT22;244;48.508;9.052;2023-01-24T13:45:48;6.80;17.00
516;DHT22;244;48.508;9.052;2023-01-24T13:48:46;6.70;16.90
516;DHT22;244;48.508;9.052;2023-01-24T13:51:34;6.70;17.00
516;DHT22;244;48.508;9.052;2023-01-24T13:54:04;6.60;17.00
516;DHT22;244;48.508;9.052;2023-01-24T13:59:40;6.60;17.20
516;DHT22;244;48.508;9.052;2023-01-24T14:02:24;6.60;17.20
516;DHT22;244;48.508;9.052;2023-01-24T14:04:52;6.50;17.90
516;DHT22;244;48.508;9.052;2023-01-24T14:07:26;6.60;17.30
516;DHT22;244;48.508;9.052;2023-01-24T14:09:57;6.60;17.90
516;DHT22;244;48.508;9.052;2023-01-24T14:12:26;6.60;17.20
516;DHT22;244;48.508;9.052;2023-01-24T14:15:02;6.60;17.30
516;DHT22;244;48.508;9.052;2023-01-24T14:17:46;6.50;17.20
516;DHT22;244;48.508;9.052;2023-01-24T14:20:22;6.50;17.20
516;DHT22;244;48.508;9.052;2023-01-24T14:22:53;6.50;17.20
516;DHT22;244;48.508;9.052;2023-01-24T14:25:32;6.50;17.30
516;DHT22;244;48.508;9.052;2023-01-24T14:28:11;6.40;17.20
516;DHT22;244;48.508;9.052;2023-01-24T14:30:43;6.40;17.30
516;DHT22;244;48.508;9.052;2023-01-24T14:33:27;6.40;17.40
516;DHT22;244;48.508;9.052;2023-01-24T14:36:01;6.30;17.50
516;DHT22;244;48.508;9.052;2023-01-24T14:38:28;6.40;17.60
516;DHT22;244;48.508;9.052;2023-01-24T14:40:57;6.40;18.20
516;DHT22;244;48.508;9.052;2023-01-24T14:43:33;6.40;17.60
516;DHT22;244;48.508;9.052;2023-01-24T14:46:10;6.40;17.70
516;DHT22;244;48.508;9.052;2023-01-24T14:48:37;6.40;17.60
516;DHT22;244;48.508;9.052;2023-01-24T14:51:06;6.40;17.70
516;DHT22;244;48.508;9.052;2023-01-24T14:53:33;6.40;17.70
516;DHT22;244;48.508;9.052;2023-01-24T14:56:02;6.40;17.70
516;DHT22;244;48.508;9.052;2023-01-24T14:58:30;6.40;17.70
516;DHT22;244;48.508;9.052;2023-01-24T15:00:58;6.40;18.30
516;DHT22;244;48.508;9.052;2023-01-24T15:03:27;6.40;17.70
516;DHT22;244;48.508;9.052;2023-01-24T15:06:00;6.40;17.70
516;DHT22;244;48.508;9.052;2023-01-24T15:08:27;6.40;17.70
516;DHT22;244;48.508;9.052;2023-01-24T15:11:01;6.40;17.70
516;DHT22;244;48.508;9.052;2023-01-24T15:13:32;6.40;17.70
516;DHT22;244;48.508;9.052;2023-01-24T15:16:00;6.30;17.60
516;DHT22;244;48.508;9.052;2023-01-24T15:18:37;6.30;17.60
516;DHT22;244;48.508;9.052;2023-01-24T15:21:05;6.30;17.60
516;DHT22;244;48.508;9.052;2023-01-24T15:23:32;6.20;18.20
516;DHT22;244;48.508;9.052;2023-01-24T15:26:20;6.20;17.60
516;DHT22;244;48.508;9.052;2023-01-24T15:28:49;6.20;17.80
516;DHT22;244;48.508;9.052;2023-01-24T15:31:19;6.20;17.90
516;DHT22;244;48.508;9.052;2023-01-24T15:33:53;6.10;18.00
516;DHT22;244;48.508;9.052;2023-01-24T15:36:23;6.10;18.00
516;DHT22;244;48.508;9.052;2023-01-24T15:38:51;6.10;18.10
516;DHT22;244;48.508;9.052;2023-01-24T15:41:22;6.10;18.10
516;DHT22;244;48.508;9.052;2023-01-24T15:44:03;6.10;18.70
516;DHT22;244;48.508;9.052;2023-01-24T15:46:33;6.10;18.90
516;DHT22;244;48.508;9.052;2023-01-24T15:49:29;6.10;18.30
516;DHT22;244;48.508;9.052;2023-01-24T15:52:20;6.00;18.20
516;DHT22;244;48.508;9.052;2023-01-24T15:54:50;6.10;18.30
516;DHT22;244;48.508;9.052;2023-01-24T15:57:24;6.00;18.30
516;DHT22;244;48.508;9.052;2023-01-24T15:59:54;6.00;18.40
516;DHT22;244;48.508;9.052;2023-01-24T16:02:21;6.00;18.40
516;DHT22;244;48.508;9.052;2023-01-24T16:04:48;6.00;19.00
516;DHT22;244;48.508;9.052;2023-01-24T16:07:15;6.00;18.50
516;DHT22;244;48.508;9.052;2023-01-24T16:09:44;6.00;18.50
516;DHT22;244;48.508;9.052;2023-01-24T16:12:13;6.00;18.60
516;DHT22;244;48.508;9.052;2023-01-24T16:14:46;5.90;18.50
516;DHT22;244;48.508;9.052;2023-01-24T16:17:16;5.90;18.60
516;DHT22;244;48.508;9.052;2023-01-24T16:19:45;5.90;18.60
516;DHT22;244;48.508;9.052;2023-01-24T16:22:11;5.90;19.30
516;DHT22;244;48.508;9.052;2023-01-24T16:24:38;5.90;19.30
516;DHT22;244;48.508;9.052;2023-01-24T16:27:08;5.90;19.40
516;DHT22;244;48.508;9.052;2023-01-24T16:29:36;5.90;18.70
516;DHT22;244;48.508;9.052;2023-01-24T16:32:04;5.90;19.40
516;DHT22;244;48.508;9.052;2023-01-24T16:34:36;5.80;18.70
516;DHT22;244;48.508;9.052;2023-01-24T16:37:03;5.80;18.80
516;DHT22;244;48.508;9.052;2023-01-24T16:39:30;5.80;18.90
516;DHT22;244;48.508;9.052;2023-01-24T16:42:02;5.80;18.90
516;DHT22;244;48.508;9.052;2023-01-24T16:44:29;5.80;18.90
516;DHT22;244;48.508;9.052;2023-01-24T16:46:59;5.80;19.00
516;DHT22;244;48.508;9.052;2023-01-24T16:49:26;5.80;19.00
516;DHT22;244;48.508;9.052;2023-01-24T16:51:54;5.80;19.00
516;DHT22;244;48.508;9.052;2023-01-24T16:54:21;5.90;19.10
516;DHT22;244;48.508;9.052;2023-01-24T16:56:49;5.80;19.00
516;DHT22;244;48.508;9.052;2023-01-24T16:59:16;5.80;19.10
516;DHT22;244;48.508;9.052;2023-01-24T17:01:43;5.80;19.80
516;DHT22;244;48.508;9.052;2023-01-24T17:04:10;5.80;19.20
516;DHT22;244;48.508;9.052;2023-01-24T17:06:38;5.80;19.20
516;DHT22;244;48.508;9.052;2023-01-24T17:09:06;5.80;19.30
516;DHT22;244;48.508;9.052;2023-01-24T17:11:34;5.80;19.30
516;DHT22;244;48.508;9.052;2023-01-24T17:14:01;5.80;19.30
516;DHT22;244;48.508;9.052;2023-01-24T17:16:27;5.80;19.40
516;DHT22;244;48.508;9.052;2023-01-24T17:18:54;5.80;19.30
516;DHT22;244;48.508;9.052;2023-01-24T17:21:22;5.80;19.40
516;DHT22;244;48.508;9.052;2023-01-24T17:23:49;5.80;19.40
516;DHT22;244;48.508;9.052;2023-01-24T17:26:17;5.70;19.90
516;DHT22;244;48.508;9.052;2023-01-24T17:28:45;5.80;19.50